Time;durP1;ratioP1;P1;durP2;ratioP2;P2;SDS_P1;SDS_P2;PMS_P1;PMS_P2;Temp;Humidity;BMP_temperature;BMP_pressure;BME280_temperature;BME280_humidity;BME280_pressure;Samples;Min_cycle;Max_cycle;Signal;HPM_P1;HPM_P2
2023/09/28 00:01:18;;;;;;;0.28;0.28;;;21.60;99.90;;;;;;4949297;28;20054;-92
2023/09/28 00:03:45;;;;;;;0.25;0.25;;;21.60;99.90;;;;;;4952253;28;20026;-92
2023/09/28 00:06:11;;;;;;;0.50;0.50;;;21.60;99.90;;;;;;4951961;28;20462;-92
2023/09/28 00:08:37;;;;;;;0.25;0.25;;;21.60;99.90;;;;;;4968247;28;20074;-91
2023/09/28 00:11:04;;;;;;;0.60;0.60;;;21.70;99.90;;;;;;4945968;28;20035;-92
2023/09/28 00:13:30;;;;;;;0.82;0.52;;;21.60;99.90;;;;;;4965848;28;20459;-93
2023/09/28 00:15:56;;;;;;;0.40;0.40;;;21.50;99.90;;;;;;4952959;28;20129;-92
2023/09/28 00:18:23;;;;;;;0.43;0.43;;;21.60;99.90;;;;;;4952905;28;20114;-92
2023/09/28 00:20:49;;;;;;;0.30;0.30;;;21.50;99.90;;;;;;4966891;28;20520;-92
2023/09/28 00:23:16;;;;;;;0.30;0.30;;;21.40;99.90;;;;;;4952008;28;20054;-92
2023/09/28 00:25:42;;;;;;;0.38;0.38;;;21.40;99.90;;;;;;4949398;28;20019;-92
2023/09/28 00:28:08;;;;;;;0.32;0.32;;;21.50;99.90;;;;;;4951995;28;20019;-92
2023/09/28 00:30:34;;;;;;;0.50;0.50;;;21.50;99.90;;;;;;4950678;28;20416;-92
2023/09/28 00:32:59;;;;;;;0.30;0.30;;;21.40;99.90;;;;;;4950578;28;20367;-92
2023/09/28 00:35:26;;;;;;;0.40;0.40;;;21.50;99.90;;;;;;4952383;28;20119;-92
2023/09/28 00:37:52;;;;;;;0.28;0.28;;;21.30;99.90;;;;;;4950230;28;20482;-92
2023/09/28 00:40:19;;;;;;;0.30;0.30;;;21.40;99.90;;;;;;4952242;28;20033;-91
2023/09/28 00:42:46;;;;;;;1.38;0.47;;;21.40;99.90;;;;;;4949805;28;20606;-92
2023/09/28 00:45:12;;;;;;;0.77;0.60;;;21.40;99.90;;;;;;4952123;28;20053;-92
2023/09/28 00:47:39;;;;;;;0.30;0.30;;;21.30;99.90;;;;;;4951680;28;20022;-92
2023/09/28 00:50:14;;;;;;;0.30;0.30;;;21.40;99.90;;;;;;4950126;28;20318;-92
2023/09/28 00:52:46;;;;;;;0.30;0.30;;;21.30;99.90;;;;;;4952110;28;20395;-92
2023/09/28 00:55:15;;;;;;;0.30;0.30;;;21.30;99.90;;;;;;4949254;28;20039;-92
2023/09/28 00:57:42;;;;;;;0.40;0.40;;;21.30;99.90;;;;;;4952168;28;20050;-92
2023/09/28 01:00:26;;;;;;;0.40;0.40;;;21.40;99.90;;;;;;4949280;28;20023;-92
2023/09/28 01:02:54;;;;;;;0.88;0.68;;;21.30;99.90;;;;;;4949842;28;20022;-92
2023/09/28 01:05:26;;;;;;;0.40;0.40;;;21.30;99.90;;;;;;4947331;28;20414;-92
2023/09/28 01:07:52;;;;;;;0.45;0.45;;;21.30;99.90;;;;;;4950920;28;20050;-92
2023/09/28 01:10:29;;;;;;;0.45;0.45;;;21.30;99.90;;;;;;4950580;28;20058;-92
2023/09/28 01:12:55;;;;;;;0.40;0.40;;;21.30;99.90;;;;;;4946521;28;20081;-91
2023/09/28 01:15:22;;;;;;;0.77;0.70;;;21.30;99.90;;;;;;4950899;28;20027;-92
2023/09/28 01:17:47;;;;;;;0.30;0.30;;;21.30;99.90;;;;;;4949468;28;20039;-92
2023/09/28 01:20:34;;;;;;;0.30;0.30;;;21.20;99.90;;;;;;4951138;28;20050;-92
2023/09/28 01:23:00;;;;;;;0.60;0.60;;;21.20;99.90;;;;;;4950584;28;20505;-92
2023/09/28 01:25:26;;;;;;;0.40;0.40;;;21.20;99.90;;;;;;4950512;28;20027;-92
2023/09/28 01:27:54;;;;;;;0.43;0.43;;;21.20;99.90;;;;;;4951420;28;20018;-92
2023/09/28 01:30:20;;;;;;;0.38;0.38;;;21.20;99.90;;;;;;4950375;28;20038;-92
2023/09/28 01:32:46;;;;;;;0.30;0.30;;;21.20;99.90;;;;;;4949931;28;20027;-92
2023/09/28 01:35:12;;;;;;;0.70;0.70;;;21.20;99.90;;;;;;4947283;28;20033;-93
2023/09/28 01:38:23;;;;;;;0.35;0.35;;;21.30;99.90;;;;;;4951038;28;20475;-92
2023/09/28 01:40:50;;;;;;;0.40;0.40;;;21.40;99.90;;;;;;4946521;28;20146;-92
2023/09/28 01:43:19;;;;;;;0.60;0.60;;;21.30;99.90;;;;;;4948106;28;20030;-92
2023/09/28 01:45:45;;;;;;;0.55;0.55;;;21.30;99.90;;;;;;4950930;28;20498;-92
2023/09/28 01:48:11;;;;;;;0.55;0.55;;;21.20;99.90;;;;;;4951749;28;20133;-92
2023/09/28 01:50:36;;;;;;;0.40;0.40;;;21.30;99.90;;;;;;4948949;28;20051;-91
2023/09/28 01:53:02;;;;;;;0.30;0.30;;;21.20;99.90;;;;;;4950144;28;20018;-92
2023/09/28 01:55:28;;;;;;;0.20;0.20;;;21.20;99.90;;;;;;4950087;28;20026;-92
2023/09/28 01:57:54;;;;;;;0.25;0.25;;;21.10;99.90;;;;;;4951732;28;20061;-91
2023/09/28 02:00:21;;;;;;;0.30;0.30;;;21.20;99.90;;;;;;4948910;28;20023;-92
2023/09/28 02:02:50;;;;;;;0.35;0.35;;;21.10;99.90;;;;;;4950436;28;20167;-92
2023/09/28 02:05:21;;;;;;;0.30;0.30;;;21.00;99.90;;;;;;4951790;28;20113;-91
2023/09/28 02:07:48;;;;;;;0.28;0.28;;;21.10;99.90;;;;;;4950584;28;20037;-92
2023/09/28 02:10:14;;;;;;;1.05;0.63;;;21.00;99.90;;;;;;4952470;28;20061;-92
2023/09/28 02:12:43;;;;;;;0.20;0.20;;;20.90;99.90;;;;;;4948800;28;20134;-92
2023/09/28 02:15:10;;;;;;;0.43;0.43;;;21.00;99.90;;;;;;4943722;28;20109;-92
2023/09/28 02:17:36;;;;;;;3.40;0.55;;;21.00;99.90;;;;;;4950219;28;20042;-93
2023/09/28 02:20:08;;;;;;;0.20;0.20;;;21.10;99.90;;;;;;4949887;28;20027;-92
2023/09/28 02:22:34;;;;;;;0.37;0.37;;;21.00;99.90;;;;;;4950154;28;20043;-92
2023/09/28 02:25:00;;;;;;;0.30;0.30;;;21.00;99.90;;;;;;4950589;28;20262;-92
2023/09/28 02:27:26;;;;;;;0.38;0.38;;;20.90;99.90;;;;;;4952501;28;20019;-92
2023/09/28 02:29:52;;;;;;;0.40;0.40;;;20.90;99.90;;;;;;4950770;28;20019;-92
2023/09/28 02:32:18;;;;;;;0.45;0.45;;;20.80;99.90;;;;;;4951574;28;20031;-91
2023/09/28 02:34:44;;;;;;;0.50;0.50;;;20.90;99.90;;;;;;4953661;28;20037;-91
2023/09/28 02:37:09;;;;;;;1.17;0.82;;;20.80;99.90;;;;;;4970454;28;20026;-92
2023/09/28 02:39:38;;;;;;;0.40;0.40;;;20.70;99.90;;;;;;4977101;28;20250;-92
2023/09/28 02:42:07;;;;;;;0.60;0.60;;;20.70;99.90;;;;;;4974684;28;20033;-92
2023/09/28 02:44:36;;;;;;;0.43;0.43;;;20.70;99.90;;;;;;4953271;28;20030;-92
2023/09/28 02:47:05;;;;;;;1.42;1.33;;;20.60;99.90;;;;;;4969797;28;20023;-92
2023/09/28 02:49:34;;;;;;;0.40;0.40;;;20.70;99.90;;;;;;4952902;28;20034;-91
2023/09/28 02:52:01;;;;;;;0.63;0.63;;;20.70;99.90;;;;;;4954621;28;20117;-92
2023/09/28 02:54:26;;;;;;;0.43;0.43;;;20.70;99.90;;;;;;4955014;28;20033;-92
2023/09/28 02:56:53;;;;;;;0.57;0.35;;;20.70;99.90;;;;;;4967744;28;20035;-92
2023/09/28 02:59:22;;;;;;;0.20;0.20;;;20.60;99.90;;;;;;4954096;28;20153;-92
2023/09/28 03:01:48;;;;;;;0.30;0.30;;;20.70;99.90;;;;;;4954193;28;20030;-92
2023/09/28 03:04:15;;;;;;;0.30;0.30;;;20.60;99.90;;;;;;4954038;28;20019;-92
2023/09/28 03:06:41;;;;;;;0.40;0.40;;;20.70;99.90;;;;;;4952828;28;20017;-91
2023/09/28 03:09:09;;;;;;;0.32;0.32;;;20.70;99.90;;;;;;4953763;28;20038;-92
2023/09/28 03:11:35;;;;;;;0.40;0.40;;;20.60;99.90;;;;;;4940731;28;20110;-92
2023/09/28 03:14:03;;;;;;;0.47;0.47;;;20.70;99.90;;;;;;4953774;28;20030;-92
2023/09/28 03:16:29;;;;;;;6.55;0.50;;;20.50;99.90;;;;;;4953581;28;20514;-92
2023/09/28 03:18:57;;;;;;;0.47;0.47;;;20.40;99.90;;;;;;4952178;28;20046;-92
2023/09/28 03:21:22;;;;;;;0.50;0.50;;;20.50;99.90;;;;;;4952753;28;20029;-92
2023/09/28 03:23:49;;;;;;;0.32;0.32;;;20.50;99.90;;;;;;4953284;28;20030;-92
2023/09/28 03:26:15;;;;;;;0.22;0.22;;;20.40;99.90;;;;;;4951913;28;20119;-92
2023/09/28 03:28:41;;;;;;;0.38;0.38;;;20.40;99.90;;;;;;4953603;28;20050;-91
2023/09/28 03:31:07;;;;;;;0.47;0.47;;;20.50;99.90;;;;;;4953501;28;20116;-91
2023/09/28 03:33:32;;;;;;;0.70;0.70;;;20.40;99.90;;;;;;4952986;28;20038;-92
2023/09/28 03:35:58;;;;;;;0.20;0.20;;;20.50;99.90;;;;;;4952268;28;20494;-92
2023/09/28 03:38:24;;;;;;;0.30;0.30;;;20.40;99.90;;;;;;4953665;28;20038;-92
2023/09/28 03:40:49;;;;;;;0.20;0.20;;;20.40;99.90;;;;;;4970181;28;20155;-91
2023/09/28 03:43:15;;;;;;;0.60;0.60;;;20.40;99.90;;;;;;4952328;28;20019;-91
2023/09/28 03:45:41;;;;;;;0.50;0.50;;;20.30;99.90;;;;;;4952983;28;20026;-92
2023/09/28 03:48:07;;;;;;;0.25;0.25;;;20.40;99.90;;;;;;4952122;28;20574;-92
2023/09/28 03:50:33;;;;;;;0.20;0.20;;;20.20;99.90;;;;;;4953213;28;20060;-91
2023/09/28 03:52:59;;;;;;;0.20;0.20;;;20.30;99.90;;;;;;4944074;28;20430;-92
2023/09/28 03:55:24;;;;;;;0.25;0.25;;;20.40;99.90;;;;;;4951714;28;20022;-92
2023/09/28 03:57:51;;;;;;;0.70;0.70;;;20.40;99.90;;;;;;4953442;28;20554;-92
2023/09/28 04:00:18;;;;;;;0.28;0.28;;;20.30;99.90;;;;;;4953846;28;20448;-91
2023/09/28 04:02:46;;;;;;;0.30;0.30;;;20.30;99.90;;;;;;4957646;28;20090;-92
2023/09/28 04:05:11;;;;;;;0.50;0.50;;;20.30;99.90;;;;;;4953258;28;20029;-91
2023/09/28 04:07:39;;;;;;;0.30;0.30;;;20.30;99.90;;;;;;4952314;28;20019;-92
2023/09/28 04:10:05;;;;;;;0.40;0.40;;;20.30;99.90;;;;;;4952391;28;20026;-92
2023/09/28 04:12:31;;;;;;;0.40;0.40;;;20.30;99.90;;;;;;4951568;28;20528;-92
2023/09/28 04:14:56;;;;;;;0.63;0.63;;;20.10;99.90;;;;;;4953731;28;20030;-91
2023/09/28 04:17:22;;;;;;;1.55;0.63;;;20.20;99.90;;;;;;4950921;28;20117;-92
2023/09/28 04:19:48;;;;;;;0.43;0.43;;;20.20;99.90;;;;;;4952248;28;20108;-92
2023/09/28 04:22:14;;;;;;;0.30;0.30;;;20.20;99.90;;;;;;4950557;28;20658;-92
2023/09/28 04:24:41;;;;;;;0.50;0.50;;;20.30;99.90;;;;;;4950847;28;20637;-92
2023/09/28 04:27:08;;;;;;;0.30;0.30;;;20.20;99.90;;;;;;4951107;28;20026;-93
2023/09/28 04:29:34;;;;;;;0.45;0.45;;;20.20;99.90;;;;;;4951721;28;20023;-91
2023/09/28 04:31:59;;;;;;;0.50;0.50;;;20.20;99.90;;;;;;4950644;28;20053;-92
2023/09/28 04:34:25;;;;;;;0.32;0.32;;;20.20;99.90;;;;;;4950735;28;20054;-92
2023/09/28 04:36:51;;;;;;;0.70;0.70;;;20.20;99.90;;;;;;4951736;28;20037;-91
2023/09/28 04:39:17;;;;;;;0.40;0.40;;;20.20;99.90;;;;;;4953535;28;20018;-91
2023/09/28 04:41:43;;;;;;;0.43;0.43;;;20.10;99.90;;;;;;4951272;28;20066;-91
2023/09/28 04:44:09;;;;;;;0.30;0.30;;;20.20;99.90;;;;;;4952673;28;20031;-91
2023/09/28 04:46:35;;;;;;;0.88;0.40;;;20.20;99.90;;;;;;4951768;28;20081;-92
2023/09/28 04:49:02;;;;;;;0.35;0.35;;;20.20;99.90;;;;;;4960138;28;20559;-92
2023/09/28 04:51:29;;;;;;;0.40;0.40;;;20.20;99.90;;;;;;4951131;28;20070;-91
2023/09/28 04:53:54;;;;;;;1.15;1.15;;;20.00;99.90;;;;;;4943407;28;20034;-92
2023/09/28 04:56:20;;;;;;;0.47;0.47;;;20.00;99.90;;;;;;4950313;28;20027;-92
2023/09/28 04:58:46;;;;;;;0.22;0.22;;;20.00;99.90;;;;;;4951218;28;20387;-92
2023/09/28 05:01:11;;;;;;;0.60;0.60;;;19.90;99.90;;;;;;4951167;28;20933;-92
2023/09/28 05:03:37;;;;;;;0.20;0.20;;;20.00;99.90;;;;;;4951022;28;20011;-91
2023/09/28 05:06:04;;;;;;;0.22;0.22;;;20.10;99.90;;;;;;4951990;28;20085;-92
2023/09/28 05:08:30;;;;;;;0.38;0.38;;;20.10;99.90;;;;;;4948308;28;20227;-91
2023/09/28 05:10:57;;;;;;;0.30;0.30;;;20.10;99.90;;;;;;4952321;28;20027;-91
2023/09/28 05:13:27;;;;;;;0.38;0.38;;;20.20;99.90;;;;;;4949673;28;20494;-92
2023/09/28 05:15:54;;;;;;;1.27;0.60;;;20.10;99.90;;;;;;4944195;28;20023;-91
2023/09/28 05:18:19;;;;;;;0.38;0.38;;;20.10;99.90;;;;;;4951482;28;20479;-91
2023/09/28 05:20:45;;;;;;;0.20;0.20;;;19.90;99.90;;;;;;4949231;28;20122;-92
2023/09/28 05:23:11;;;;;;;0.20;0.20;;;19.90;99.90;;;;;;4952541;28;20045;-91
2023/09/28 05:25:37;;;;;;;0.20;0.20;;;19.90;99.90;;;;;;4951479;28;20015;-91
2023/09/28 05:28:04;;;;;;;0.57;0.57;;;19.80;99.90;;;;;;4949646;28;20411;-92
2023/09/28 05:30:29;;;;;;;0.30;0.30;;;19.90;99.90;;;;;;4951413;28;20059;-92
2023/09/28 05:32:56;;;;;;;0.22;0.22;;;19.90;99.90;;;;;;4949532;28;20054;-91
2023/09/28 05:35:22;;;;;;;0.50;0.50;;;19.90;99.90;;;;;;4950301;28;20022;-91
2023/09/28 05:37:49;;;;;;;0.20;0.20;;;19.90;99.90;;;;;;4950522;28;20565;-91
2023/09/28 05:40:15;;;;;;;0.55;0.55;;;20.00;99.90;;;;;;4950593;28;20037;-91
2023/09/28 05:42:41;;;;;;;0.40;0.40;;;20.00;99.90;;;;;;4944003;28;20483;-92
2023/09/28 05:45:08;;;;;;;0.20;0.20;;;19.90;99.90;;;;;;4950638;28;20109;-92
2023/09/28 05:47:34;;;;;;;0.20;0.20;;;19.80;99.90;;;;;;4950289;28;20050;-91
2023/09/28 05:50:01;;;;;;;0.40;0.40;;;19.70;99.90;;;;;;4949022;28;20679;-92
2023/09/28 05:52:27;;;;;;;0.60;0.60;;;19.70;99.90;;;;;;4949491;28;20054;-91
2023/09/28 05:54:53;;;;;;;0.50;0.50;;;19.60;99.90;;;;;;4950435;28;20107;-91
2023/09/28 05:57:22;;;;;;;0.30;0.30;;;19.50;99.90;;;;;;4950008;28;20591;-92
2023/09/28 05:59:48;;;;;;;3.33;0.90;;;19.60;99.90;;;;;;4949906;28;20071;-90
2023/09/28 06:02:14;;;;;;;0.20;0.20;;;19.50;99.90;;;;;;4951906;28;20022;-92
2023/09/28 06:04:43;;;;;;;0.65;0.65;;;19.50;99.90;;;;;;4949157;28;20023;-91
2023/09/28 06:07:11;;;;;;;0.57;0.50;;;19.50;99.90;;;;;;4953685;28;20027;-91
2023/09/28 06:09:40;;;;;;;0.82;0.82;;;19.60;99.90;;;;;;4954215;28;20475;-91
2023/09/28 06:12:06;;;;;;;0.30;0.30;;;19.60;99.90;;;;;;4950347;28;20038;-92
2023/09/28 06:14:33;;;;;;;0.63;0.63;;;19.60;99.90;;;;;;4955720;28;20034;-91
2023/09/28 06:17:00;;;;;;;0.47;0.47;;;19.60;99.90;;;;;;4947275;28;20058;-91
2023/09/28 06:19:26;;;;;;;0.20;0.20;;;19.50;99.90;;;;;;4953363;28;20109;-92
2023/09/28 06:21:52;;;;;;;0.13;0.13;;;19.60;99.90;;;;;;4953516;28;20436;-91
2023/09/28 06:24:18;;;;;;;0.28;0.28;;;19.70;99.90;;;;;;4954976;28;20015;-91
2023/09/28 06:26:43;;;;;;;0.20;0.20;;;19.80;99.90;;;;;;4957779;28;20550;-91
2023/09/28 06:29:10;;;;;;;0.38;0.38;;;19.80;99.90;;;;;;4962417;28;20022;-91
2023/09/28 06:31:36;;;;;;;0.40;0.40;;;19.80;99.90;;;;;;4954602;28;20027;-91
2023/09/28 06:34:01;;;;;;;0.30;0.30;;;19.70;99.90;;;;;;4954062;28;20611;-91
2023/09/28 06:36:28;;;;;;;0.60;0.60;;;19.70;99.90;;;;;;4955325;28;20129;-91
2023/09/28 06:38:55;;;;;;;0.50;0.50;;;19.70;99.90;;;;;;4956216;28;20098;-91
2023/09/28 06:41:21;;;;;;;0.45;0.45;;;19.70;99.90;;;;;;4954223;28;20023;-92
2023/09/28 06:43:49;;;;;;;0.40;0.40;;;19.80;99.90;;;;;;4952642;28;20062;-92
2023/09/28 06:46:15;;;;;;;0.30;0.30;;;19.80;99.90;;;;;;4959399;28;20026;-92
2023/09/28 06:48:40;;;;;;;0.43;0.43;;;19.80;99.90;;;;;;4954220;28;20041;-92
2023/09/28 06:51:06;;;;;;;0.30;0.30;;;19.90;99.90;;;;;;4953630;28;20041;-93
2023/09/28 06:53:32;;;;;;;0.40;0.40;;;19.90;99.90;;;;;;4953306;28;20054;-92
2023/09/28 06:56:02;;;;;;;0.47;0.47;;;19.90;99.90;;;;;;4953017;28;20023;-93
2023/09/28 06:58:28;;;;;;;0.40;0.40;;;19.80;99.90;;;;;;4953403;28;20360;-93
2023/09/28 07:00:53;;;;;;;0.30;0.30;;;19.70;99.90;;;;;;4958392;28;20090;-92
2023/09/28 07:03:20;;;;;;;0.20;0.20;;;19.60;99.90;;;;;;4952755;28;20074;-92
2023/09/28 07:05:45;;;;;;;0.28;0.28;;;19.70;99.90;;;;;;4947737;28;20569;-92
2023/09/28 07:08:12;;;;;;;0.22;0.22;;;19.70;99.90;;;;;;4954855;28;20137;-92
2023/09/28 07:10:38;;;;;;;0.38;0.38;;;19.80;99.90;;;;;;4954130;28;20472;-92
2023/09/28 07:13:05;;;;;;;0.30;0.30;;;19.80;99.90;;;;;;4951383;28;20406;-93
2023/09/28 07:15:32;;;;;;;0.50;0.50;;;19.80;99.90;;;;;;4953075;28;20015;-93
2023/09/28 07:17:58;;;;;;;0.20;0.20;;;19.90;99.90;;;;;;4953651;28;20035;-92
2023/09/28 07:20:27;;;;;;;0.32;0.32;;;19.90;99.90;;;;;;4951861;28;20054;-93
2023/09/28 07:22:53;;;;;;;0.45;0.45;;;19.90;99.90;;;;;;4953875;28;20026;-93
2023/09/28 07:25:19;;;;;;;0.30;0.30;;;19.90;99.90;;;;;;4954179;28;20022;-93
2023/09/28 07:27:49;;;;;;;0.32;0.32;;;19.90;99.90;;;;;;4952843;28;20635;-93
2023/09/28 07:30:15;;;;;;;0.57;0.57;;;19.90;99.90;;;;;;4953443;28;20019;-94
2023/09/28 07:32:41;;;;;;;0.20;0.20;;;19.90;99.90;;;;;;4953780;28;20022;-93
2023/09/28 07:35:11;;;;;;;0.63;0.63;;;19.90;99.90;;;;;;4951984;28;20493;-92
2023/09/28 07:37:38;;;;;;;0.30;0.30;;;20.00;99.90;;;;;;4953193;28;20148;-93
2023/09/28 07:40:06;;;;;;;0.20;0.20;;;20.00;99.90;;;;;;4954048;28;20058;-92
2023/09/28 07:42:32;;;;;;;0.30;0.30;;;20.00;99.90;;;;;;4953547;28;20097;-92
2023/09/28 07:44:57;;;;;;;0.30;0.30;;;20.00;99.90;;;;;;4952916;28;20026;-93
2023/09/28 07:47:23;;;;;;;0.38;0.38;;;20.00;99.90;;;;;;4954121;28;20019;-93
2023/09/28 07:49:49;;;;;;;0.32;0.32;;;20.00;99.90;;;;;;4953090;28;20474;-93
2023/09/28 07:52:15;;;;;;;0.30;0.30;;;20.00;99.90;;;;;;4953633;28;20049;-93
2023/09/28 07:54:41;;;;;;;0.20;0.20;;;20.00;99.90;;;;;;4953768;28;20069;-93
2023/09/28 07:57:07;;;;;;;0.20;0.20;;;20.00;99.90;;;;;;4953761;28;20046;-93
2023/09/28 07:59:39;;;;;;;0.70;0.63;;;20.10;99.90;;;;;;4954658;28;20054;-93
2023/09/28 08:02:09;;;;;;;0.60;0.60;;;20.10;99.90;;;;;;4950631;28;20053;-93
2023/09/28 08:04:38;;;;;;;0.20;0.20;;;20.10;99.90;;;;;;4952089;28;20031;-93
2023/09/28 08:07:04;;;;;;;0.20;0.20;;;20.20;99.90;;;;;;4952308;28;20092;-93
2023/09/28 08:09:32;;;;;;;0.25;0.25;;;20.30;99.90;;;;;;4950948;28;20038;-93
2023/09/28 08:11:58;;;;;;;0.20;0.20;;;20.20;99.90;;;;;;4952573;28;20113;-93
2023/09/28 08:14:24;;;;;;;1.17;0.43;;;20.30;99.90;;;;;;4951811;28;20015;-93
2023/09/28 08:16:52;;;;;;;0.40;0.40;;;20.30;99.90;;;;;;4949485;28;20392;-93
2023/09/28 08:19:19;;;;;;;0.40;0.40;;;20.40;99.90;;;;;;4957937;28;20015;-93
2023/09/28 08:21:46;;;;;;;0.20;0.20;;;20.40;99.90;;;;;;4951659;28;20130;-93
2023/09/28 08:24:14;;;;;;;0.40;0.40;;;20.50;99.90;;;;;;4949894;28;20109;-93
2023/09/28 08:26:40;;;;;;;0.20;0.20;;;20.50;99.90;;;;;;4950736;28;20507;-92
2023/09/28 08:29:06;;;;;;;0.20;0.20;;;20.60;99.90;;;;;;4950676;28;20093;-94
2023/09/28 08:31:34;;;;;;;0.32;0.32;;;20.60;99.90;;;;;;4952742;28;20050;-93
2023/09/28 08:34:03;;;;;;;0.57;0.57;;;20.60;99.90;;;;;;4954723;28;20027;-93
2023/09/28 08:36:36;;;;;;;0.20;0.20;;;20.50;99.90;;;;;;4951540;28;20031;-96
2023/09/28 08:39:05;;;;;;;0.30;0.30;;;20.60;99.90;;;;;;4952107;28;20026;-96
2023/09/28 08:41:46;;;;;;;0.50;0.50;;;20.70;99.90;;;;;;4952642;28;20045;-96
2023/09/28 08:44:14;;;;;;;0.20;0.20;;;20.80;99.90;;;;;;4952024;28;20023;-95
2023/09/28 08:46:41;;;;;;;0.40;0.40;;;20.90;99.90;;;;;;4950302;28;20051;-96
2023/09/28 08:49:09;;;;;;;0.30;0.30;;;21.00;99.90;;;;;;4950629;28;20035;-96
2023/09/28 08:52:05;;;;;;;0.40;0.40;;;21.00;99.90;;;;;;4993168;27;4400315;-95
2023/09/28 08:54:42;;;;;;;0.20;0.20;;;21.00;99.90;;;;;;5108492;27;20101;-93
2023/09/28 08:57:38;;;;;;;0.80;0.63;;;21.10;99.90;;;;;;5117875;27;20027;-93
2023/09/28 09:00:36;;;;;;;0.45;0.45;;;21.20;99.90;;;;;;5116133;27;20533;-93
2023/09/28 09:03:14;;;;;;;0.13;0.13;;;21.20;99.90;;;;;;5110216;27;20077;-93
2023/09/28 09:06:20;;;;;;;0.57;0.57;;;21.40;99.90;;;;;;5108765;27;20020;-93
2023/09/28 09:09:15;;;;;;;2.50;0.38;;;21.50;99.90;;;;;;5102210;27;20423;-93
2023/09/28 09:12:34;;;;;;;;;;;;;;;;;;;;;
2023/09/28 09:15:52;;;;;;;0.60;0.60;;;21.80;99.90;;;;;;5108024;27;20012;-93
2023/09/28 09:19:17;;;;;;;;;;;;;;;;;;;;;
2023/09/28 09:22:44;;;;;;;0.35;0.35;;;22.20;99.90;;;;;;5106420;27;20049;-94
2023/09/28 09:29:21;;;;;;;;;;;;;;;;;;;;;
2023/09/28 09:32:49;;;;;;;0.38;0.38;;;22.50;99.90;;;;;;5102692;28;20156;-94
2023/09/28 09:36:17;;;;;;;0.80;0.80;;;22.40;99.90;;;;;;5082118;28;20020;-94
2023/09/28 09:49:48;;;;;;;;;;;;;;;;;;;;;
2023/09/28 09:53:11;;;;;;;;;;;;;;;;;;;;;
2023/09/28 12:58:30;;;;;;;;;;;;;;;;;;;;;
2023/09/28 13:04:48;;;;;;;0.40;0.40;;;23.30;98.50;;;;;;5019143;23;20086;-94
2023/09/28 13:07:55;;;;;;;0.40;0.40;;;23.20;97.80;;;;;;4913989;28;20115;-94
2023/09/28 13:10:58;;;;;;;0.30;0.30;;;23.20;98.50;;;;;;4918819;29;20030;-95
2023/09/28 13:55:26;;;;;;;;;;;;;;;;;;;;;
2023/09/28 20:51:13;;;;;;;0.20;0.20;;;20.40;99.90;;;;;;4899402;29;20434;-92
2023/09/28 20:56:38;;;;;;;0.20;0.20;;;20.60;99.90;;;;;;5192975;23;20064;-93
2023/09/28 20:59:04;;;;;;;0.15;0.13;;;20.60;99.90;;;;;;4923918;29;20028;-96
2023/09/28 21:08:07;;;;;;;0.30;0.30;;;20.70;99.90;;;;;;4922425;29;20089;-94
2023/09/28 21:10:36;;;;;;;0.35;0.25;;;20.70;99.90;;;;;;4915450;29;20048;-94
2023/09/28 21:13:33;;;;;;;0.20;0.20;;;20.70;99.90;;;;;;4915757;29;20024;-95
2023/09/28 21:15:59;;;;;;;0.55;0.55;;;20.70;99.90;;;;;;4918227;29;20036;-92
2023/09/28 21:18:25;;;;;;;0.63;0.63;;;20.70;99.90;;;;;;5050068;23;20104;-94
2023/09/28 21:25:14;;;;;;;2.05;0.40;;;20.70;99.90;;;;;;4836453;29;20407;-91
2023/09/28 21:38:10;;;;;;;0.40;0.40;;;20.00;99.90;;;;;;4837180;29;20036;-92
2023/09/28 21:40:36;;;;;;;0.20;0.20;;;19.90;99.90;;;;;;4886650;28;20043;-90
2023/09/28 21:43:08;;;;;;;0.30;0.30;;;19.80;99.90;;;;;;4918355;28;20652;-92
2023/09/28 21:45:34;;;;;;;2.55;0.40;;;19.90;99.90;;;;;;4918184;28;20023;-92
2023/09/28 21:48:02;;;;;;;0.57;0.57;;;19.80;99.90;;;;;;4924469;28;20145;-91
2023/09/28 21:50:34;;;;;;;0.22;0.22;;;19.80;99.90;;;;;;4922072;28;20093;-92
2023/09/28 21:53:00;;;;;;;0.32;0.32;;;19.80;99.90;;;;;;4919920;28;20031;-91
2023/09/28 21:55:30;;;;;;;0.30;0.30;;;19.80;99.90;;;;;;4928110;28;20039;-95
2023/09/28 21:57:57;;;;;;;0.55;0.55;;;19.70;99.90;;;;;;4929382;28;20031;-96
2023/09/28 22:00:34;;;;;;;0.20;0.20;;;19.70;99.90;;;;;;5141766;23;20028;-96
2023/09/28 22:03:06;;;;;;;0.10;0.10;;;19.70;99.90;;;;;;4939791;29;20081;-96
2023/09/28 22:05:32;;;;;;;0.55;0.55;;;19.70;99.90;;;;;;5228823;23;20055;-96
2023/09/28 22:08:01;;;;;;;0.30;0.30;;;19.70;99.90;;;;;;4927065;28;20030;-94
2023/09/28 22:10:34;;;;;;;0.20;0.20;;;19.70;99.90;;;;;;4932522;28;20035;-94
2023/09/28 22:13:09;;;;;;;0.40;0.40;;;19.70;99.90;;;;;;4922859;28;20027;-95
2023/09/28 22:15:38;;;;;;;0.20;0.20;;;19.80;99.90;;;;;;4928694;28;20031;-96
2023/09/28 22:18:34;;;;;;;;;;;;;;;;;;;;;
2023/09/28 22:24:46;;;;;;;0.30;0.30;;;20.00;99.90;;;;;;4863253;29;20041;-93
2023/09/28 22:41:10;;;;;;;;;;;;;;;;;;;;;
2023/09/28 22:44:00;;;;;;;0.30;0.30;;;20.10;99.90;;;;;;4911363;29;20040;-95
2023/09/28 22:46:54;;;;;;;0.30;0.30;;;20.00;99.90;;;;;;4910686;29;20059;-94
2023/09/28 22:53:43;;;;;;;0.28;0.28;;;20.00;99.90;;;;;;4874204;29;20108;-96
2023/09/28 23:03:46;;;;;;;0.30;0.30;;;19.70;99.90;;;;;;4817646;29;20049;-96
2023/09/28 23:24:26;;;;;;;0.20;0.20;;;19.90;99.90;;;;;;4688650;30;20220;-95
2023/09/28 23:34:45;;;;;;;;;;;;;;;;;;;;;
2023/09/28 23:49:01;;;;;;;;;;;;;;;;;;;;;
2023/09/28 23:51:57;;;;;;;0.25;0.25;;;20.20;99.90;;;;;;4662368;30;20411;-95
2023/09/28 23:54:58;;;;;;;1.40;0.73;;;20.30;99.90;;;;;;4658470;30;20166;-95
